sensor_id;sensor_type;location;lat;lon;timestamp;pressure;altitude;pressure_sealevel;temperature;humidity
54369;BME280;40266;52.434;17.056;2023-04-28T00:05:36;101130.82;;;-0.92;78.04
54369;BME280;40266;52.434;17.056;2023-04-28T00:13:27;101132.82;;;-0.98;78.22
54369;BME280;40266;52.434;17.056;2023-04-28T00:25:00;101132.34;;;-1.11;78.52
54369;BME280;40266;52.434;17.056;2023-04-28T00:43:09;101137.66;;;-1.20;79.17
54369;BME280;40266;52.434;17.056;2023-04-28T01:05:28;101125.83;;;-1.34;79.38
54369;BME280;40266;52.434;17.056;2023-04-28T01:08:11;101125.08;;;-1.35;79.13
54369;BME280;40266;52.434;17.056;2023-04-28T01:10:54;101125.02;;;-1.37;79.21
54369;BME280;40266;52.434;17.056;2023-04-28T01:13:54;101124.24;;;-1.40;79.30
54369;BME280;40266;52.434;17.056;2023-04-28T01:16:39;101124.53;;;-1.41;79.30
54369;BME280;40266;52.434;17.056;2023-04-28T01:19:23;101122.61;;;-1.41;79.33
54369;BME280;40266;52.434;17.056;2023-04-28T01:22:06;101119.68;;;-1.42;79.49
54369;BME280;40266;52.434;17.056;2023-04-28T01:24:52;101121.19;;;-1.43;79.37
54369;BME280;40266;52.434;17.056;2023-04-28T01:27:35;101121.80;;;-1.45;79.55
54369;BME280;40266;52.434;17.056;2023-04-28T01:30:17;101124.11;;;-1.47;79.62
54369;BME280;40266;52.434;17.056;2023-04-28T01:33:00;101121.27;;;-1.50;79.63
54369;BME280;40266;52.434;17.056;2023-04-28T01:35:44;101121.70;;;-1.52;80.19
54369;BME280;40266;52.434;17.056;2023-04-28T01:38:27;101122.34;;;-1.53;80.10
54369;BME280;40266;52.434;17.056;2023-04-28T01:41:09;101121.65;;;-1.53;80.66
54369;BME280;40266;52.434;17.056;2023-04-28T01:43:52;101121.50;;;-1.53;80.58
54369;BME280;40266;52.434;17.056;2023-04-28T01:46:35;101121.93;;;-1.55;80.74
54369;BME280;40266;52.434;17.056;2023-04-28T01:49:18;101120.80;;;-1.58;80.34
54369;BME280;40266;52.434;17.056;2023-04-28T01:52:01;101117.80;;;-1.60;80.36
54369;BME280;40266;52.434;17.056;2023-04-28T01:54:45;101116.70;;;-1.62;80.58
54369;BME280;40266;52.434;17.056;2023-04-28T01:57:28;101121.16;;;-1.62;80.57
54369;BME280;40266;52.434;17.056;2023-04-28T02:00:11;101120.60;;;-1.63;80.53
54369;BME280;40266;52.434;17.056;2023-04-28T02:03:03;101114.72;;;-1.64;80.48
54369;BME280;40266;52.434;17.056;2023-04-28T02:05:49;101119.31;;;-1.65;80.65
54369;BME280;40266;52.434;17.056;2023-04-28T02:08:33;101117.90;;;-1.66;80.59
54369;BME280;40266;52.434;17.056;2023-04-28T02:11:15;101113.90;;;-1.68;80.70
54369;BME280;40266;52.434;17.056;2023-04-28T02:13:58;101114.30;;;-1.71;80.90
54369;BME280;40266;52.434;17.056;2023-04-28T02:16:41;101114.21;;;-1.73;80.64
54369;BME280;40266;52.434;17.056;2023-04-28T02:19:26;101109.95;;;-1.76;80.96
54369;BME280;40266;52.434;17.056;2023-04-28T02:22:08;101112.83;;;-1.78;80.79
54369;BME280;40266;52.434;17.056;2023-04-28T02:24:51;101110.88;;;-1.79;81.11
54369;BME280;40266;52.434;17.056;2023-04-28T02:27:35;101114.20;;;-1.82;80.76
54369;BME280;40266;52.434;17.056;2023-04-28T02:30:21;101113.73;;;-1.85;80.66
54369;BME280;40266;52.434;17.056;2023-04-28T02:33:03;101108.73;;;-1.86;80.78
54369;BME280;40266;52.434;17.056;2023-04-28T02:35:46;101108.28;;;-1.88;80.93
54369;BME280;40266;52.434;17.056;2023-04-28T02:38:29;101107.17;;;-1.91;80.88
54369;BME280;40266;52.434;17.056;2023-04-28T02:41:13;101108.31;;;-1.92;80.95
54369;BME280;40266;52.434;17.056;2023-04-28T02:43:57;101111.17;;;-1.94;80.89
54369;BME280;40266;52.434;17.056;2023-04-28T02:46:40;101109.10;;;-1.94;81.07
54369;BME280;40266;52.434;17.056;2023-04-28T02:49:23;101112.81;;;-1.95;81.21
54369;BME280;40266;52.434;17.056;2023-04-28T02:52:06;101111.76;;;-1.96;81.14
54369;BME280;40266;52.434;17.056;2023-04-28T02:54:49;101109.31;;;-1.97;81.18
54369;BME280;40266;52.434;17.056;2023-04-28T02:57:36;101110.14;;;-1.98;81.16
54369;BME280;40266;52.434;17.056;2023-04-28T03:00:19;101109.55;;;-2.00;81.19
54369;BME280;40266;52.434;17.056;2023-04-28T03:03:02;101110.19;;;-2.01;81.24
54369;BME280;40266;52.434;17.056;2023-04-28T03:05:46;101113.05;;;-2.02;81.25
54369;BME280;40266;52.434;17.056;2023-04-28T03:08:28;101111.64;;;-2.03;81.39
54369;BME280;40266;52.434;17.056;2023-04-28T03:11:11;101108.14;;;-2.05;81.55
54369;BME280;40266;52.434;17.056;2023-04-28T03:13:55;101109.09;;;-2.07;81.41
54369;BME280;40266;52.434;17.056;2023-04-28T03:16:38;101108.06;;;-2.07;81.32
54369;BME280;40266;52.434;17.056;2023-04-28T03:19:21;101104.25;;;-2.08;81.31
54369;BME280;40266;52.434;17.056;2023-04-28T03:22:04;101106.06;;;-2.10;81.43
54369;BME280;40266;52.434;17.056;2023-04-28T03:24:47;101104.46;;;-2.11;81.31
54369;BME280;40266;52.434;17.056;2023-04-28T03:27:30;101105.27;;;-2.13;81.41
54369;BME280;40266;52.434;17.056;2023-04-28T03:30:13;101103.34;;;-2.14;81.76
54369;BME280;40266;52.434;17.056;2023-04-28T03:32:56;101108.67;;;-2.13;81.40
54369;BME280;40266;52.434;17.056;2023-04-28T03:35:39;101104.34;;;-2.14;81.44
54369;BME280;40266;52.434;17.056;2023-04-28T03:38:22;101103.13;;;-2.15;81.59
54369;BME280;40266;52.434;17.056;2023-04-28T03:41:05;101109.79;;;-2.15;81.85
54369;BME280;40266;52.434;17.056;2023-04-28T03:43:48;101106.88;;;-2.15;81.54
54369;BME280;40266;52.434;17.056;2023-04-28T03:46:51;101109.10;;;-2.15;81.66
54369;BME280;40266;52.434;17.056;2023-04-28T03:49:34;101107.73;;;-2.15;81.92
54369;BME280;40266;52.434;17.056;2023-04-28T03:52:17;101105.71;;;-2.14;81.86
54369;BME280;40266;52.434;17.056;2023-04-28T03:55:00;101111.24;;;-2.13;82.19
54369;BME280;40266;52.434;17.056;2023-04-28T03:57:45;101110.58;;;-2.13;82.14
54369;BME280;40266;52.434;17.056;2023-04-28T04:00:28;101109.61;;;-2.11;82.21
54369;BME280;40266;52.434;17.056;2023-04-28T04:03:10;101110.40;;;-2.08;82.26
54369;BME280;40266;52.434;17.056;2023-04-28T04:05:53;101108.65;;;-2.05;82.58
54369;BME280;40266;52.434;17.056;2023-04-28T04:08:37;101108.91;;;-2.03;82.55
54369;BME280;40266;52.434;17.056;2023-04-28T04:11:20;101104.94;;;-2.00;82.40
54369;BME280;40266;52.434;17.056;2023-04-28T04:14:03;101106.67;;;-1.95;82.36
54369;BME280;40266;52.434;17.056;2023-04-28T04:16:46;101108.02;;;-1.91;82.59
54369;BME280;40266;52.434;17.056;2023-04-28T04:19:30;101109.10;;;-1.85;82.61
54369;BME280;40266;52.434;17.056;2023-04-28T04:22:13;101111.79;;;-1.78;82.65
54369;BME280;40266;52.434;17.056;2023-04-28T04:24:56;101110.11;;;-1.73;82.65
54369;BME280;40266;52.434;17.056;2023-04-28T04:27:40;101106.62;;;-1.66;82.68
54369;BME280;40266;52.434;17.056;2023-04-28T04:30:23;101111.23;;;-1.57;82.78
54369;BME280;40266;52.434;17.056;2023-04-28T04:33:06;101112.55;;;-1.49;83.20
54369;BME280;40266;52.434;17.056;2023-04-28T04:35:49;101107.49;;;-1.43;83.03
54369;BME280;40266;52.434;17.056;2023-04-28T04:38:32;101111.60;;;-1.34;82.89
54369;BME280;40266;52.434;17.056;2023-04-28T04:41:25;101110.22;;;-1.25;83.18
54369;BME280;40266;52.434;17.056;2023-04-28T04:44:18;101108.34;;;-1.16;83.03
54369;BME280;40266;52.434;17.056;2023-04-28T04:47:01;101108.23;;;-1.05;83.12
54369;BME280;40266;52.434;17.056;2023-04-28T04:49:47;101104.18;;;-0.93;83.24
54369;BME280;40266;52.434;17.056;2023-04-28T04:52:30;101104.36;;;-0.79;83.34
54369;BME280;40266;52.434;17.056;2023-04-28T04:55:13;101105.63;;;-0.62;83.11
54369;BME280;40266;52.434;17.056;2023-04-28T04:57:56;101101.84;;;-0.47;83.28
54369;BME280;40266;52.434;17.056;2023-04-28T05:00:39;101105.93;;;-0.28;83.40
54369;BME280;40266;52.434;17.056;2023-04-28T05:03:22;101103.30;;;-0.09;83.32
54369;BME280;40266;52.434;17.056;2023-04-28T05:06:06;101104.86;;;0.18;83.47
54369;BME280;40266;52.434;17.056;2023-04-28T05:08:56;101102.02;;;0.66;83.13
54369;BME280;40266;52.434;17.056;2023-04-28T05:11:40;101102.06;;;2.03;82.59
54369;BME280;40266;52.434;17.056;2023-04-28T05:14:23;101100.64;;;2.76;81.87
54369;BME280;40266;52.434;17.056;2023-04-28T05:17:06;101097.85;;;3.26;81.23
54369;BME280;40266;52.434;17.056;2023-04-28T05:19:51;101094.85;;;4.01;80.41
54369;BME280;40266;52.434;17.056;2023-04-28T05:22:34;101090.14;;;5.44;79.12
54369;BME280;40266;52.434;17.056;2023-04-28T05:25:17;101084.95;;;6.80;77.60
54369;BME280;40266;52.434;17.056;2023-04-28T05:28:00;101086.55;;;7.32;76.60
54369;BME280;40266;52.434;17.056;2023-04-28T05:30:49;101082.60;;;7.98;74.51
54369;BME280;40266;52.434;17.056;2023-04-28T05:33:32;101084.32;;;8.47;73.23
54369;BME280;40266;52.434;17.056;2023-04-28T05:36:15;101082.17;;;9.11;71.56
54369;BME280;40266;52.434;17.056;2023-04-28T05:39:00;101087.02;;;9.96;70.50
54369;BME280;40266;52.434;17.056;2023-04-28T05:41:43;101088.19;;;10.45;68.85
54369;BME280;40266;52.434;17.056;2023-04-28T05:44:26;101084.88;;;11.05;67.08
54369;BME280;40266;52.434;17.056;2023-04-28T05:47:09;101082.05;;;11.34;66.28
54369;BME280;40266;52.434;17.056;2023-04-28T05:49:52;101079.23;;;11.47;64.53
54369;BME280;40266;52.434;17.056;2023-04-28T05:52:35;101082.52;;;11.37;63.54
54369;BME280;40266;52.434;17.056;2023-04-28T05:55:18;101084.39;;;11.01;62.85
54369;BME280;40266;52.434;17.056;2023-04-28T05:58:04;101083.88;;;10.56;62.21
54369;BME280;40266;52.434;17.056;2023-04-28T06:00:47;101078.73;;;10.27;63.10
54369;BME280;40266;52.434;17.056;2023-04-28T06:03:32;101078.88;;;10.09;62.86
54369;BME280;40266;52.434;17.056;2023-04-28T06:06:15;101076.96;;;10.31;62.49
54369;BME280;40266;52.434;17.056;2023-04-28T06:08:58;101078.13;;;10.54;61.36
54369;BME280;40266;52.434;17.056;2023-04-28T06:11:41;101075.24;;;10.63;60.36
54369;BME280;40266;52.434;17.056;2023-04-28T06:14:24;101076.10;;;10.32;60.36
54369;BME280;40266;52.434;17.056;2023-04-28T06:17:07;101073.16;;;10.61;60.46
54369;BME280;40266;52.434;17.056;2023-04-28T06:19:50;101068.89;;;11.11;59.48
54369;BME280;40266;52.434;17.056;2023-04-28T06:22:36;101068.14;;;11.85;58.25
54369;BME280;40266;52.434;17.056;2023-04-28T06:25:18;101064.36;;;12.34;57.62
54369;BME280;40266;52.434;17.056;2023-04-28T06:28:02;101065.30;;;12.20;57.57
54369;BME280;40266;52.434;17.056;2023-04-28T06:30:45;101063.01;;;12.49;56.58
54369;BME280;40266;52.434;17.056;2023-04-28T06:33:28;101062.48;;;12.67;55.35
54369;BME280;40266;52.434;17.056;2023-04-28T06:36:11;101061.39;;;13.04;55.00
54369;BME280;40266;52.434;17.056;2023-04-28T06:38:56;101056.60;;;14.17;53.82
54369;BME280;40266;52.434;17.056;2023-04-28T06:41:38;101055.38;;;14.83;52.63
54369;BME280;40266;52.434;17.056;2023-04-28T06:44:23;101048.98;;;15.03;51.95
54369;BME280;40266;52.434;17.056;2023-04-28T06:47:06;101042.02;;;15.29;49.65
54369;BME280;40266;52.434;17.056;2023-04-28T06:49:51;101042.77;;;16.39;48.42
54369;BME280;40266;52.434;17.056;2023-04-28T06:52:35;101048.00;;;16.36;45.77
54369;BME280;40266;52.434;17.056;2023-04-28T06:55:21;101049.33;;;15.26;45.06
54369;BME280;40266;52.434;17.056;2023-04-28T06:58:05;101054.10;;;14.52;45.24
54369;BME280;40266;52.434;17.056;2023-04-28T07:00:48;101053.23;;;13.78;45.54
54369;BME280;40266;52.434;17.056;2023-04-28T07:03:31;101051.70;;;13.46;46.38
54369;BME280;40266;52.434;17.056;2023-04-28T07:06:15;101051.21;;;13.44;45.71
54369;BME280;40266;52.434;17.056;2023-04-28T07:08:58;101049.83;;;13.36;45.63
54369;BME280;40266;52.434;17.056;2023-04-28T07:11:41;101044.86;;;13.22;46.07
54369;BME280;40266;52.434;17.056;2023-04-28T07:14:24;101043.16;;;13.59;46.61
54369;BME280;40266;52.434;17.056;2023-04-28T07:17:07;101038.63;;;13.99;46.60
54369;BME280;40266;52.434;17.056;2023-04-28T07:19:50;101035.73;;;14.23;45.99
54369;BME280;40266;52.434;17.056;2023-04-28T07:22:33;101034.27;;;14.58;45.51
54369;BME280;40266;52.434;17.056;2023-04-28T07:25:16;101030.02;;;14.45;43.72
54369;BME280;40266;52.434;17.056;2023-04-28T07:28:02;101034.45;;;13.84;42.36
54369;BME280;40266;52.434;17.056;2023-04-28T07:30:45;101028.95;;;13.36;42.76
54369;BME280;40266;52.434;17.056;2023-04-28T07:33:28;101023.67;;;13.12;42.55
54369;BME280;40266;52.434;17.056;2023-04-28T07:36:11;101019.05;;;13.15;43.18
54369;BME280;40266;52.434;17.056;2023-04-28T07:38:54;101018.67;;;13.48;43.28
54369;BME280;40266;52.434;17.056;2023-04-28T07:41:37;101010.71;;;13.86;41.44
54369;BME280;40266;52.434;17.056;2023-04-28T07:44:20;101008.91;;;14.40;40.80
54369;BME280;40266;52.434;17.056;2023-04-28T07:47:03;101003.89;;;14.76;40.59
54369;BME280;40266;52.434;17.056;2023-04-28T07:49:46;100999.34;;;14.56;40.46
54369;BME280;40266;52.434;17.056;2023-04-28T07:52:30;100998.86;;;14.22;40.58
54369;BME280;40266;52.434;17.056;2023-04-28T07:55:13;101002.44;;;13.94;40.12
54369;BME280;40266;52.434;17.056;2023-04-28T07:57:56;101002.11;;;13.72;41.09
54369;BME280;40266;52.434;17.056;2023-04-28T08:00:40;100998.27;;;13.64;41.45
54369;BME280;40266;52.434;17.056;2023-04-28T08:03:23;100996.52;;;13.57;41.39
54369;BME280;40266;52.434;17.056;2023-04-28T08:06:07;100996.48;;;13.51;41.37
54369;BME280;40266;52.434;17.056;2023-04-28T08:08:50;100991.19;;;13.53;41.40
54369;BME280;40266;52.434;17.056;2023-04-28T08:11:33;100990.38;;;13.49;41.53
54369;BME280;40266;52.434;17.056;2023-04-28T08:14:16;100984.68;;;13.46;41.65
54369;BME280;40266;52.434;17.056;2023-04-28T08:17:00;100978.55;;;13.60;41.55
54369;BME280;40266;52.434;17.056;2023-04-28T08:19:42;100978.92;;;13.73;41.35
54369;BME280;40266;52.434;17.056;2023-04-28T08:22:27;100971.02;;;13.86;40.55
54369;BME280;40266;52.434;17.056;2023-04-28T08:25:11;100969.98;;;13.93;40.66
54369;BME280;40266;52.434;17.056;2023-04-28T08:27:53;100961.45;;;13.90;40.47
54369;BME280;40266;52.434;17.056;2023-04-28T08:30:39;100965.05;;;14.19;40.35
54369;BME280;40266;52.434;17.056;2023-04-28T08:33:22;100957.67;;;14.63;39.50
54369;BME280;40266;52.434;17.056;2023-04-28T08:36:06;100954.10;;;15.27;39.17
54369;BME280;40266;52.434;17.056;2023-04-28T08:38:49;100950.54;;;15.60;37.73
54369;BME280;40266;52.434;17.056;2023-04-28T08:41:36;100945.34;;;15.94;36.98
54369;BME280;40266;52.434;17.056;2023-04-28T08:44:20;100942.33;;;16.25;36.80
54369;BME280;40266;52.434;17.056;2023-04-28T08:47:12;100939.55;;;16.24;36.78
54369;BME280;40266;52.434;17.056;2023-04-28T08:50:06;100939.39;;;15.78;36.85
54369;BME280;40266;52.434;17.056;2023-04-28T08:52:51;100930.30;;;15.29;36.83
54369;BME280;40266;52.434;17.056;2023-04-28T08:55:34;100930.59;;;14.98;38.04
54369;BME280;40266;52.434;17.056;2023-04-28T08:58:18;100929.77;;;14.85;38.20
54369;BME280;40266;52.434;17.056;2023-04-28T09:01:01;100925.65;;;14.64;38.44
54369;BME280;40266;52.434;17.056;2023-04-28T09:03:47;100922.73;;;14.49;38.46
54369;BME280;40266;52.434;17.056;2023-04-28T09:06:33;100920.23;;;14.39;38.89
54369;BME280;40266;52.434;17.056;2023-04-28T09:09:20;100918.95;;;14.28;38.91
54369;BME280;40266;52.434;17.056;2023-04-28T09:12:04;100912.36;;;14.26;39.27
54369;BME280;40266;52.434;17.056;2023-04-28T09:14:57;100913.48;;;14.17;38.41
54369;BME280;40266;52.434;17.056;2023-04-28T09:17:47;100911.04;;;13.85;38.74
54369;BME280;40266;52.434;17.056;2023-04-28T09:20:33;100906.73;;;13.88;39.49
54369;BME280;40266;52.434;17.056;2023-04-28T09:23:18;100907.34;;;13.91;39.64
54369;BME280;40266;52.434;17.056;2023-04-28T09:26:03;100905.55;;;13.86;39.24
54369;BME280;40266;52.434;17.056;2023-04-28T09:28:47;100903.19;;;13.76;39.20
54369;BME280;40266;52.434;17.056;2023-04-28T09:31:29;100900.21;;;13.76;40.52
54369;BME280;40266;52.434;17.056;2023-04-28T09:34:12;100896.83;;;13.84;40.45
54369;BME280;40266;52.434;17.056;2023-04-28T09:36:56;100899.95;;;13.91;40.33
54369;BME280;40266;52.434;17.056;2023-04-28T09:39:39;100899.61;;;13.91;40.36
54369;BME280;40266;52.434;17.056;2023-04-28T09:42:48;100887.06;;;13.94;40.40
54369;BME280;40266;52.434;17.056;2023-04-28T09:45:38;100888.11;;;13.88;40.02
54369;BME280;40266;52.434;17.056;2023-04-28T09:48:27;100876.47;;;13.90;40.64
54369;BME280;40266;52.434;17.056;2023-04-28T09:51:10;100874.96;;;14.00;40.86
54369;BME280;40266;52.434;17.056;2023-04-28T09:53:58;100868.34;;;14.05;40.58
54369;BME280;40266;52.434;17.056;2023-04-28T09:56:42;100864.17;;;14.09;40.99
54369;BME280;40266;52.434;17.056;2023-04-28T09:59:26;100862.35;;;14.18;40.88
54369;BME280;40266;52.434;17.056;2023-04-28T10:02:10;100862.98;;;14.20;40.60
54369;BME280;40266;52.434;17.056;2023-04-28T10:05:15;100855.20;;;14.28;40.97
54369;BME280;40266;52.434;17.056;2023-04-28T10:08:01;100851.38;;;14.26;40.73
54369;BME280;40266;52.434;17.056;2023-04-28T10:10:45;100852.98;;;14.31;40.97
54369;BME280;40266;52.434;17.056;2023-04-28T10:13:30;100851.61;;;14.30;40.64
54369;BME280;40266;52.434;17.056;2023-04-28T10:16:14;100846.93;;;14.16;39.80
54369;BME280;40266;52.434;17.056;2023-04-28T10:19:00;100839.63;;;14.08;40.79
54369;BME280;40266;52.434;17.056;2023-04-28T10:21:53;100835.73;;;14.14;40.77
54369;BME280;40266;52.434;17.056;2023-04-28T10:27:47;100830.92;;;13.99;40.03
54369;BME280;40266;52.434;17.056;2023-04-28T10:30:31;100828.07;;;13.94;40.13
54369;BME280;40266;52.434;17.056;2023-04-28T10:35:58;100831.65;;;14.10;40.54
54369;BME280;40266;52.434;17.056;2023-04-28T10:39:10;100830.64;;;14.14;40.04
54369;BME280;40266;52.434;17.056;2023-04-28T10:41:55;100827.02;;;14.18;41.38
54369;BME280;40266;52.434;17.056;2023-04-28T10:44:40;100819.29;;;14.30;40.86
54369;BME280;40266;52.434;17.056;2023-04-28T10:47:24;100810.98;;;14.32;41.03
54369;BME280;40266;52.434;17.056;2023-04-28T10:50:08;100806.03;;;14.44;39.91
54369;BME280;40266;52.434;17.056;2023-04-28T10:52:51;100806.69;;;14.45;40.36
54369;BME280;40266;52.434;17.056;2023-04-28T10:55:34;100805.88;;;14.55;40.70
54369;BME280;40266;52.434;17.056;2023-04-28T11:04:08;100792.27;;;14.79;40.86
54369;BME280;40266;52.434;17.056;2023-04-28T11:07:09;100790.27;;;14.82;40.38
54369;BME280;40266;52.434;17.056;2023-04-28T11:09:53;100784.55;;;14.84;40.53
54369;BME280;40266;52.434;17.056;2023-04-28T11:16:04;100772.95;;;14.95;40.71
54369;BME280;40266;52.434;17.056;2023-04-28T11:18:56;100770.77;;;14.91;40.38
54369;BME280;40266;52.434;17.056;2023-04-28T11:21:40;100770.87;;;14.89;40.41
54369;BME280;40266;52.434;17.056;2023-04-28T11:24:25;100758.55;;;14.89;40.29
54369;BME280;40266;52.434;17.056;2023-04-28T11:27:08;100757.71;;;14.92;39.96
54369;BME280;40266;52.434;17.056;2023-04-28T11:29:52;100757.55;;;14.93;40.06
54369;BME280;40266;52.434;17.056;2023-04-28T11:32:35;100755.52;;;14.95;39.64
54369;BME280;40266;52.434;17.056;2023-04-28T11:35:19;100756.61;;;15.00;40.41
54369;BME280;40266;52.434;17.056;2023-04-28T11:38:02;100755.94;;;15.14;40.60
54369;BME280;40266;52.434;17.056;2023-04-28T11:40:57;100757.41;;;15.27;40.39
54369;BME280;40266;52.434;17.056;2023-04-28T11:43:40;100754.09;;;15.31;40.06
54369;BME280;40266;52.434;17.056;2023-04-28T11:46:29;100748.60;;;15.32;40.13
54369;BME280;40266;52.434;17.056;2023-04-28T11:49:12;100741.57;;;15.32;40.11
54369;BME280;40266;52.434;17.056;2023-04-28T11:51:57;100742.55;;;15.34;40.41
54369;BME280;40266;52.434;17.056;2023-04-28T11:54:52;100741.41;;;15.41;39.97
54369;BME280;40266;52.434;17.056;2023-04-28T11:57:35;100741.84;;;15.39;39.62
54369;BME280;40266;52.434;17.056;2023-04-28T12:00:18;100738.37;;;15.37;39.82
54369;BME280;40266;52.434;17.056;2023-04-28T12:03:07;100736.48;;;15.46;39.80
54369;BME280;40266;52.434;17.056;2023-04-28T12:05:50;100736.27;;;15.57;39.80
54369;BME280;40266;52.434;17.056;2023-04-28T12:08:33;100730.27;;;15.66;40.42
54369;BME280;40266;52.434;17.056;2023-04-28T12:11:16;100730.09;;;15.72;40.14
54369;BME280;40266;52.434;17.056;2023-04-28T12:14:03;100726.20;;;15.77;39.82
54369;BME280;40266;52.434;17.056;2023-04-28T12:16:47;100722.70;;;15.76;39.72
54369;BME280;40266;52.434;17.056;2023-04-28T12:19:42;100724.70;;;15.79;39.65
54369;BME280;40266;52.434;17.056;2023-04-28T12:22:26;100723.96;;;15.86;39.25
54369;BME280;40266;52.434;17.056;2023-04-28T12:25:12;100718.23;;;15.92;39.55
54369;BME280;40266;52.434;17.056;2023-04-28T12:28:02;100716.13;;;16.01;40.10
54369;BME280;40266;52.434;17.056;2023-04-28T12:30:46;100716.05;;;16.08;39.98
54369;BME280;40266;52.434;17.056;2023-04-28T12:33:28;100706.42;;;16.10;39.31
54369;BME280;40266;52.434;17.056;2023-04-28T12:36:12;100706.80;;;16.14;38.87
54369;BME280;40266;52.434;17.056;2023-04-28T12:38:55;100703.08;;;16.19;39.12
54369;BME280;40266;52.434;17.056;2023-04-28T12:41:38;100704.05;;;16.21;38.62
54369;BME280;40266;52.434;17.056;2023-04-28T12:44:20;100700.39;;;16.16;38.56
54369;BME280;40266;52.434;17.056;2023-04-28T12:47:07;100696.08;;;16.09;38.73
54369;BME280;40266;52.434;17.056;2023-04-28T12:49:51;100695.30;;;16.10;38.72
54369;BME280;40266;52.434;17.056;2023-04-28T12:52:35;100692.27;;;16.12;38.42
54369;BME280;40266;52.434;17.056;2023-04-28T12:55:19;100693.33;;;16.12;38.10
54369;BME280;40266;52.434;17.056;2023-04-28T12:58:01;100688.39;;;16.08;38.14
54369;BME280;40266;52.434;17.056;2023-04-28T13:00:44;100684.27;;;16.09;38.82
54369;BME280;40266;52.434;17.056;2023-04-28T13:03:27;100676.70;;;16.13;38.68
54369;BME280;40266;52.434;17.056;2023-04-28T13:06:11;100678.23;;;16.11;38.32
54369;BME280;40266;52.434;17.056;2023-04-28T13:08:54;100679.41;;;16.07;38.44
54369;BME280;40266;52.434;17.056;2023-04-28T13:11:37;100671.92;;;16.09;38.96
54369;BME280;40266;52.434;17.056;2023-04-28T13:14:21;100660.84;;;16.13;39.16
54369;BME280;40266;52.434;17.056;2023-04-28T13:17:04;100660.04;;;16.20;39.27
54369;BME280;40266;52.434;17.056;2023-04-28T13:19:47;100655.23;;;16.26;39.35
54369;BME280;40266;52.434;17.056;2023-04-28T13:22:30;100657.29;;;16.31;39.05
54369;BME280;40266;52.434;17.056;2023-04-28T13:25:13;100652.02;;;16.27;38.33
54369;BME280;40266;52.434;17.056;2023-04-28T13:27:56;100642.77;;;16.19;38.65
54369;BME280;40266;52.434;17.056;2023-04-28T13:30:39;100637.38;;;16.27;38.81
54369;BME280;40266;52.434;17.056;2023-04-28T13:33:22;100636.34;;;16.31;38.40
54369;BME280;40266;52.434;17.056;2023-04-28T13:36:12;100633.17;;;16.35;38.36
54369;BME280;40266;52.434;17.056;2023-04-28T13:38:55;100627.16;;;16.44;38.82
54369;BME280;40266;52.434;17.056;2023-04-28T13:41:39;100620.08;;;16.57;38.88
54369;BME280;40266;52.434;17.056;2023-04-28T13:44:22;100619.35;;;16.61;38.51
54369;BME280;40266;52.434;17.056;2023-04-28T13:47:05;100612.88;;;16.64;38.71
54369;BME280;40266;52.434;17.056;2023-04-28T13:49:51;100608.58;;;16.62;38.68
54369;BME280;40266;52.434;17.056;2023-04-28T13:52:34;100605.73;;;16.58;38.59
54369;BME280;40266;52.434;17.056;2023-04-28T13:55:18;100605.23;;;16.62;38.24
54369;BME280;40266;52.434;17.056;2023-04-28T13:58:01;100605.55;;;16.58;37.58
54369;BME280;40266;52.434;17.056;2023-04-28T14:00:46;100606.09;;;16.54;38.26
54369;BME280;40266;52.434;17.056;2023-04-28T14:03:29;100600.09;;;16.59;38.00
54369;BME280;40266;52.434;17.056;2023-04-28T14:06:13;100585.27;;;16.66;38.58
54369;BME280;40266;52.434;17.056;2023-04-28T14:08:57;100581.48;;;16.73;38.16
54369;BME280;40266;52.434;17.056;2023-04-28T14:11:39;100579.60;;;16.75;38.31
54369;BME280;40266;52.434;17.056;2023-04-28T14:14:23;100578.61;;;16.82;37.70
54369;BME280;40266;52.434;17.056;2023-04-28T14:17:05;100573.58;;;16.80;37.88
54369;BME280;40266;52.434;17.056;2023-04-28T14:19:49;100569.81;;;16.82;38.15
54369;BME280;40266;52.434;17.056;2023-04-28T14:22:32;100568.20;;;16.86;37.92
54369;BME280;40266;52.434;17.056;2023-04-28T14:25:16;100561.97;;;16.84;37.44
54369;BME280;40266;52.434;17.056;2023-04-28T14:27:59;100558.46;;;16.79;37.95
54369;BME280;40266;52.434;17.056;2023-04-28T14:30:42;100561.48;;;16.78;37.53
54369;BME280;40266;52.434;17.056;2023-04-28T14:33:26;100555.52;;;16.78;38.72
54369;BME280;40266;52.434;17.056;2023-04-28T14:36:08;100550.98;;;16.81;38.53
54369;BME280;40266;52.434;17.056;2023-04-28T14:38:52;100552.88;;;16.82;38.42
54369;BME280;40266;52.434;17.056;2023-04-28T14:41:34;100544.10;;;16.81;38.23
54369;BME280;40266;52.434;17.056;2023-04-28T14:44:17;100544.36;;;16.83;37.97
54369;BME280;40266;52.434;17.056;2023-04-28T14:47:01;100541.98;;;16.77;37.60
54369;BME280;40266;52.434;17.056;2023-04-28T14:49:46;100539.93;;;16.72;37.71
54369;BME280;40266;52.434;17.056;2023-04-28T14:52:29;100532.41;;;16.70;38.20
54369;BME280;40266;52.434;17.056;2023-04-28T14:55:14;100526.04;;;16.66;37.70
54369;BME280;40266;52.434;17.056;2023-04-28T14:57:57;100526.58;;;16.54;37.45
54369;BME280;40266;52.434;17.056;2023-04-28T15:00:40;100525.90;;;16.45;37.58
54369;BME280;40266;52.434;17.056;2023-04-28T15:03:23;100522.80;;;16.44;37.78
54369;BME280;40266;52.434;17.056;2023-04-28T15:06:06;100521.92;;;16.44;37.53
54369;BME280;40266;52.434;17.056;2023-04-28T15:08:49;100517.79;;;16.45;38.10
54369;BME280;40266;52.434;17.056;2023-04-28T15:11:32;100511.96;;;16.46;37.89
54369;BME280;40266;52.434;17.056;2023-04-28T15:14:15;100508.80;;;16.42;37.89
54369;BME280;40266;52.434;17.056;2023-04-28T15:16:58;100503.84;;;16.42;38.45